Caransebes, Romania
Current Conditions -  °F | °C
As of 3:30 AM on Tuesday 23 Dec 2014 (Local Time) from LYVR Reporting Station
Clear Clear  
Wind Chill: 42°   Ceiling: Unl
Heat Index: 46°   Visibility: 6mi
Dew Point: 30°   Wind: 9mph
Humidity: 53%   Direction: 170°S
Pressure: 30.15"   Gusts: NA
Location:  45.41°N, 22.22°E
Report Text: LYVR 230030Z 17008KT CAVOK 08/M01 Q1021 NOSIG
Loading
Personal Weather Stations






























Interactive Weather Map New forecast layout! Learn more

10-Day Weather Forecast

Advertisements
Track Severe Weather on mobile